createdAt,value
2019-03-04T00:00:41.781Z,11.60
2019-03-04T00:03:10.647Z,11.60
2019-03-04T00:05:39.212Z,11.50
2019-03-04T00:08:07.746Z,11.60
2019-03-04T00:10:36.247Z,11.50
2019-03-04T00:13:04.859Z,11.50
2019-03-04T00:15:33.422Z,11.40
2019-03-04T00:18:01.969Z,11.20
2019-03-04T00:20:30.538Z,11.10
2019-03-04T00:22:59.086Z,11.10
2019-03-04T00:25:27.656Z,11.10
2019-03-04T00:27:56.290Z,11.10
2019-03-04T00:30:24.855Z,11.00
2019-03-04T00:32:53.718Z,10.80
2019-03-04T00:35:22.297Z,10.70
2019-03-04T00:37:50.841Z,10.60
2019-03-04T00:40:19.567Z,10.70
2019-03-04T00:42:48.043Z,10.80
2019-03-04T00:45:16.606Z,10.80
2019-03-04T00:47:45.410Z,10.80
2019-03-04T00:50:19.077Z,10.70
2019-03-04T00:52:47.622Z,10.80
2019-03-04T00:55:17.529Z,10.90
2019-03-04T00:57:46.347Z,10.90
2019-03-04T01:00:18.757Z,10.80
2019-03-04T01:02:47.370Z,10.70
2019-03-04T01:05:15.934Z,10.70
2019-03-04T01:07:44.647Z,10.60
2019-03-04T01:10:15.447Z,10.60
2019-03-04T01:12:44.227Z,10.70
2019-03-04T01:15:18.115Z,10.90
2019-03-04T01:17:46.584Z,11.00
2019-03-04T01:20:16.857Z,10.90
2019-03-04T01:22:45.354Z,10.70
2019-03-04T01:25:15.846Z,10.70
2019-03-04T01:27:44.483Z,10.70
2019-03-04T01:30:21.512Z,10.60
2019-03-04T01:32:50.319Z,10.80
2019-03-04T01:35:18.863Z,10.70
2019-03-04T01:37:47.428Z,10.60
2019-03-04T01:40:21.290Z,10.50
2019-03-04T01:42:49.856Z,10.60
2019-03-04T01:45:19.243Z,10.60
2019-03-04T01:47:47.824Z,10.80
2019-03-04T01:50:17.891Z,10.90
2019-03-04T01:52:46.896Z,10.90
2019-03-04T01:55:17.570Z,10.90
2019-03-04T01:57:46.134Z,11.00
2019-03-04T02:00:17.282Z,11.10
2019-03-04T02:02:46.187Z,11.10
2019-03-04T02:05:14.970Z,11.30
2019-03-04T02:07:43.676Z,11.40
2019-03-04T02:10:15.298Z,11.50
2019-03-04T02:12:44.367Z,11.60
2019-03-04T02:15:14.859Z,11.90
2019-03-04T02:17:43.779Z,11.90
2019-03-04T02:20:15.029Z,12.00
2019-03-04T02:22:43.614Z,12.00
2019-03-04T02:25:47.246Z,12.00
2019-03-04T02:28:15.737Z,12.00
2019-03-04T02:30:44.347Z,12.00
2019-03-04T02:33:12.915Z,12.10
2019-03-04T02:35:41.447Z,12.10
2019-03-04T02:38:10.319Z,12.10
2019-03-04T02:40:38.863Z,12.10
2019-03-04T02:43:07.418Z,12.20
2019-03-04T02:45:35.889Z,12.20
2019-03-04T02:48:04.596Z,12.20
2019-03-04T02:50:33.201Z,12.20
2019-03-04T02:53:01.772Z,12.20
2019-03-04T02:55:30.598Z,12.30
2019-03-04T02:57:59.124Z,12.20
2019-03-04T03:00:27.766Z,12.30
2019-03-04T03:02:56.636Z,12.20
2019-03-04T03:05:25.216Z,12.30
2019-03-04T03:07:53.755Z,12.20
2019-03-04T03:10:22.265Z,12.20
2019-03-04T03:12:50.872Z,12.20
2019-03-04T03:15:21.248Z,12.10
2019-03-04T03:17:49.760Z,12.10
2019-03-04T03:20:18.404Z,12.10
2019-03-04T03:22:46.980Z,12.10
2019-03-04T03:25:17.695Z,12.10
2019-03-04T03:27:46.270Z,12.10
2019-03-04T03:30:19.918Z,12.10
2019-03-04T03:32:49.391Z,12.10
2019-03-04T03:35:17.984Z,12.10
2019-03-04T03:37:46.600Z,12.10
2019-03-04T03:40:21.871Z,12.10
2019-03-04T03:42:50.510Z,12.10
2019-03-04T03:45:19.138Z,12.10
2019-03-04T03:47:47.739Z,12.10
2019-03-04T03:50:16.837Z,12.10
2019-03-04T03:52:46.286Z,12.00
2019-03-04T03:55:16.054Z,11.80
2019-03-04T03:57:44.737Z,11.80
2019-03-04T04:00:18.804Z,11.70
2019-03-04T04:02:47.491Z,11.90
2019-03-04T04:05:16.450Z,12.00
2019-03-04T04:07:45.061Z,11.80
2019-03-04T04:10:18.768Z,11.70
2019-03-04T04:12:47.317Z,11.60
2019-03-04T04:15:19.805Z,11.80
2019-03-04T04:17:48.423Z,11.70
2019-03-04T04:20:17.041Z,11.60
2019-03-04T04:22:45.666Z,11.70
2019-03-04T04:25:14.811Z,11.80
2019-03-04T04:27:43.318Z,11.90
2019-03-04T04:30:18.601Z,11.70
2019-03-04T04:32:47.168Z,11.80
2019-03-04T04:35:15.719Z,11.90
2019-03-04T04:37:44.354Z,11.80
2019-03-04T04:40:14.048Z,11.80
2019-03-04T04:42:42.611Z,11.80
2019-03-04T04:45:11.498Z,11.80
2019-03-04T04:47:41.911Z,11.80
2019-03-04T04:50:21.910Z,11.80
2019-03-04T04:52:50.495Z,11.80
2019-03-04T04:55:19.036Z,11.80
2019-03-04T04:57:47.672Z,11.80
2019-03-04T05:00:18.147Z,11.80
2019-03-04T05:02:46.715Z,11.80
2019-03-04T05:05:15.483Z,11.90
2019-03-04T05:07:44.807Z,11.90
2019-03-04T05:10:16.436Z,11.90
2019-03-04T05:12:45.410Z,12.00
2019-03-04T05:15:15.487Z,11.90
2019-03-04T05:17:44.065Z,11.80
2019-03-04T05:20:15.674Z,11.90
2019-03-04T05:22:44.341Z,11.90
2019-03-04T05:25:13.019Z,11.90
2019-03-04T05:27:41.550Z,11.90
2019-03-04T05:30:15.913Z,11.80
2019-03-04T05:32:44.480Z,11.80
2019-03-04T05:35:13.192Z,11.70
2019-03-04T05:37:41.904Z,11.70
2019-03-04T05:40:16.298Z,11.80
2019-03-04T05:42:44.826Z,11.80
2019-03-04T05:45:18.368Z,11.80
2019-03-04T05:47:46.980Z,11.90
2019-03-04T05:50:17.992Z,11.80
2019-03-04T05:52:46.551Z,11.80
2019-03-04T05:55:15.962Z,11.90
2019-03-04T05:57:44.583Z,12.00
2019-03-04T06:00:32.443Z,11.90
2019-03-04T06:03:06.461Z,11.90
2019-03-04T06:05:35.017Z,12.00
2019-03-04T06:08:05.280Z,11.90
2019-03-04T06:10:33.922Z,12.00
2019-03-04T06:13:02.493Z,12.10
2019-03-04T06:15:31.068Z,12.10
2019-03-04T06:17:59.670Z,12.10
2019-03-04T06:20:28.217Z,12.20
2019-03-04T06:22:57.629Z,12.20
2019-03-04T06:25:29.817Z,12.20
2019-03-04T06:27:58.694Z,12.20
2019-03-04T06:30:31.113Z,12.30
2019-03-04T06:32:59.723Z,12.40
2019-03-04T06:35:28.277Z,12.40
2019-03-04T06:37:56.742Z,12.50
2019-03-04T06:40:25.311Z,12.40
2019-03-04T06:42:53.875Z,12.40
2019-03-04T06:45:22.509Z,12.40
2019-03-04T06:47:51.044Z,12.30
2019-03-04T06:50:48.979Z,12.20
2019-03-04T06:53:37.119Z,12.00
2019-03-04T06:56:21.011Z,11.80
2019-03-04T06:59:09.091Z,11.70
2019-03-04T07:02:00.781Z,11.70
2019-03-04T07:04:38.383Z,11.60
2019-03-04T07:07:06.946Z,11.60
2019-03-04T07:09:35.491Z,11.50
2019-03-04T07:12:04.298Z,11.50
2019-03-04T07:14:32.958Z,11.60
2019-03-04T07:17:01.526Z,11.60
2019-03-04T07:19:30.065Z,11.60
2019-03-04T07:21:58.713Z,11.60
2019-03-04T07:24:27.259Z,11.60
2019-03-04T07:26:55.891Z,11.70
2019-03-04T07:29:24.506Z,11.70
2019-03-04T07:31:53.146Z,11.70
2019-03-04T07:34:21.710Z,11.70
2019-03-04T07:36:50.329Z,11.80
2019-03-04T07:39:19.263Z,11.80
2019-03-04T07:41:47.808Z,11.90
2019-03-04T07:44:16.368Z,12.00
2019-03-04T07:46:44.979Z,12.10
2019-03-04T07:49:13.613Z,12.10
2019-03-04T07:51:42.203Z,12.10
2019-03-04T07:54:10.842Z,12.20
2019-03-04T07:56:39.389Z,12.30
2019-03-04T07:59:07.957Z,12.30
2019-03-04T08:01:36.491Z,12.40
2019-03-04T08:04:05.301Z,12.40
2019-03-04T08:06:34.083Z,12.40
2019-03-04T08:09:17.355Z,12.40
2019-03-04T08:11:57.729Z,12.50
2019-03-04T08:14:26.297Z,12.50
2019-03-04T08:16:54.839Z,12.50
2019-03-04T08:19:23.414Z,12.60
2019-03-04T08:21:51.954Z,12.60
2019-03-04T08:24:20.513Z,12.60
2019-03-04T08:26:49.118Z,12.70
2019-03-04T08:29:17.680Z,12.70
2019-03-04T08:31:46.171Z,12.70
2019-03-04T08:34:14.739Z,12.70
2019-03-04T08:36:43.288Z,12.80
2019-03-04T08:39:11.866Z,12.90
2019-03-04T08:41:40.402Z,12.90
2019-03-04T08:44:08.956Z,13.00
2019-03-04T08:46:37.522Z,13.00
2019-03-04T08:49:06.062Z,13.10
2019-03-04T08:51:34.632Z,13.10
2019-03-04T08:54:03.160Z,13.10
2019-03-04T08:56:31.718Z,13.10
2019-03-04T08:59:00.178Z,13.00
2019-03-04T09:01:31.040Z,12.70
2019-03-04T09:03:59.011Z,12.10
2019-03-04T09:06:27.575Z,11.70
2019-03-04T09:08:56.114Z,11.20
2019-03-04T09:11:24.741Z,11.00
2019-03-04T09:13:53.211Z,10.90
2019-03-04T09:16:21.949Z,10.80
2019-03-04T09:18:50.477Z,10.80
2019-03-04T09:21:18.963Z,10.90
2019-03-04T09:23:47.499Z,10.90
2019-03-04T09:26:16.083Z,11.10
2019-03-04T09:28:44.619Z,11.10
2019-03-04T09:31:13.191Z,11.20
2019-03-04T09:33:42.002Z,11.30
2019-03-04T09:36:10.562Z,11.40
2019-03-04T09:38:39.370Z,11.40
2019-03-04T09:41:07.932Z,11.40
2019-03-04T09:43:36.470Z,11.50
2019-03-04T09:46:05.079Z,11.50
2019-03-04T09:48:33.642Z,11.50
2019-03-04T09:51:02.106Z,11.70
2019-03-04T09:53:39.057Z,11.60
2019-03-04T09:56:00.867Z,11.80
2019-03-04T09:58:29.426Z,11.80
2019-03-04T10:01:15.595Z,11.90
2019-03-04T10:03:56.197Z,12.00
2019-03-04T10:06:36.622Z,12.10
2019-03-04T10:09:27.942Z,12.00
2019-03-04T10:12:05.036Z,12.10
2019-03-04T10:14:51.651Z,12.40
2019-03-04T10:17:37.944Z,12.60
2019-03-04T10:20:44.330Z,12.90
2019-03-04T10:23:33.938Z,12.90
2019-03-04T10:26:33.012Z,12.80
2019-03-04T10:29:39.613Z,12.70
2019-03-04T10:32:31.841Z,13.00
2019-03-04T10:35:15.535Z,13.10
2019-03-04T10:38:02.471Z,13.10
2019-03-04T10:40:46.191Z,13.00
2019-03-04T10:43:35.631Z,13.10
2019-03-04T10:46:07.183Z,13.00
2019-03-04T10:48:35.756Z,13.10
2019-03-04T10:51:04.559Z,13.00
2019-03-04T10:53:33.137Z,12.70
2019-03-04T10:56:01.597Z,12.60
2019-03-04T10:58:30.166Z,12.60
2019-03-04T11:00:58.768Z,12.60
2019-03-04T11:03:27.335Z,12.70
2019-03-04T11:05:55.952Z,12.80
2019-03-04T11:08:24.511Z,12.80
2019-03-04T11:10:53.050Z,12.60
2019-03-04T11:13:21.585Z,12.30
2019-03-04T11:15:50.479Z,12.10
2019-03-04T11:18:19.067Z,11.70
2019-03-04T11:20:47.635Z,11.30
2019-03-04T11:23:16.254Z,11.20
2019-03-04T11:25:44.877Z,11.00
2019-03-04T11:28:13.482Z,11.00
2019-03-04T11:30:42.194Z,10.90
2019-03-04T11:33:10.732Z,10.80
2019-03-04T11:35:39.364Z,10.70
2019-03-04T11:38:10.988Z,10.60
2019-03-04T11:40:41.202Z,10.40
2019-03-04T11:43:09.729Z,10.50
2019-03-04T11:45:38.222Z,10.80
2019-03-04T11:48:06.757Z,11.10
2019-03-04T11:50:35.566Z,11.50
2019-03-04T11:53:04.190Z,11.60
2019-03-04T11:55:33.287Z,11.80
2019-03-04T11:58:01.825Z,11.90
2019-03-04T12:00:32.230Z,12.00
2019-03-04T12:03:00.851Z,12.00
2019-03-04T12:05:29.486Z,12.10
2019-03-04T12:07:58.166Z,11.90
2019-03-04T12:10:26.732Z,11.90
2019-03-04T12:12:55.276Z,11.90
2019-03-04T12:15:23.822Z,12.10
2019-03-04T12:17:52.396Z,12.10
2019-03-04T12:20:20.990Z,12.10
2019-03-04T12:22:49.550Z,12.20
2019-03-04T12:25:19.532Z,12.50
2019-03-04T12:27:48.166Z,12.70
2019-03-04T12:30:22.480Z,12.50
2019-03-04T12:32:52.638Z,12.30
2019-03-04T12:35:21.310Z,12.10
2019-03-04T12:37:49.938Z,12.00
2019-03-04T12:40:20.237Z,11.90
2019-03-04T12:42:48.721Z,11.50
2019-03-04T12:45:18.834Z,11.40
2019-03-04T12:47:47.395Z,11.40
2019-03-04T12:50:30.400Z,11.40
2019-03-04T12:52:59.593Z,11.30
2019-03-04T12:55:28.129Z,11.30
2019-03-04T12:57:57.109Z,11.20
2019-03-04T13:00:33.725Z,11.20
2019-03-04T13:03:02.300Z,11.10
2019-03-04T13:05:30.843Z,10.80
2019-03-04T13:07:59.406Z,10.60
2019-03-04T13:10:27.947Z,10.60
2019-03-04T13:12:56.649Z,10.60
2019-03-04T13:15:33.724Z,10.60
2019-03-04T13:18:02.549Z,10.60
2019-03-04T13:20:31.823Z,10.60
2019-03-04T13:23:00.386Z,10.50
2019-03-04T13:25:28.854Z,10.30
2019-03-04T13:28:04.991Z,10.00
2019-03-04T13:30:33.019Z,9.50
2019-03-04T13:33:01.927Z,8.90
2019-03-04T13:35:34.904Z,8.70
2019-03-04T13:38:03.579Z,8.60
2019-03-04T13:40:32.493Z,8.70
2019-03-04T13:43:01.205Z,8.80
2019-03-04T13:45:29.965Z,8.80
2019-03-04T13:47:58.570Z,8.90
2019-03-04T13:50:31.175Z,8.90
2019-03-04T13:52:59.774Z,8.90
2019-03-04T13:55:28.407Z,8.80
2019-03-04T13:57:56.998Z,8.90
2019-03-04T14:00:33.975Z,8.80
2019-03-04T14:03:02.816Z,8.90
2019-03-04T14:05:31.444Z,8.90
2019-03-04T14:07:59.898Z,8.90
2019-03-04T14:10:45.852Z,8.90
2019-03-04T14:13:14.446Z,8.90
2019-03-04T14:15:51.948Z,8.80
2019-03-04T14:18:20.469Z,8.70
2019-03-04T14:20:48.945Z,8.70
2019-03-04T14:23:17.503Z,8.70
2019-03-04T14:25:46.056Z,8.60
2019-03-04T14:28:14.595Z,8.70
2019-03-04T14:30:43.153Z,8.80
2019-03-04T14:33:11.748Z,8.80
2019-03-04T14:35:40.419Z,8.80
2019-03-04T14:38:09.023Z,8.90
2019-03-04T14:40:37.561Z,8.90
2019-03-04T14:43:06.123Z,8.90
2019-03-04T14:45:34.662Z,9.00
2019-03-04T14:48:04.363Z,9.00
2019-03-04T14:50:36.137Z,9.10
2019-03-04T14:53:05.046Z,9.10
2019-03-04T14:55:41.123Z,9.10
2019-03-04T14:58:09.701Z,9.10
2019-03-04T15:00:41.768Z,9.10
2019-03-04T15:03:20.693Z,9.10
2019-03-04T15:05:42.119Z,9.20
2019-03-04T15:08:11.518Z,9.20
2019-03-04T15:10:40.159Z,9.20
2019-03-04T15:13:09.921Z,9.10
2019-03-04T15:15:38.685Z,9.20
2019-03-04T15:18:07.315Z,8.90
2019-03-04T15:20:35.985Z,8.40
2019-03-04T15:23:04.626Z,7.60
2019-03-04T15:25:34.898Z,7.20
2019-03-04T15:28:12.212Z,7.20
2019-03-04T15:30:41.791Z,7.10
2019-03-04T15:33:17.653Z,7.10
2019-03-04T15:35:40.951Z,7.10
2019-03-04T15:38:09.518Z,7.00
2019-03-04T15:40:38.062Z,6.90
2019-03-04T15:43:06.578Z,6.50
2019-03-04T15:45:35.443Z,6.40
2019-03-04T15:48:04.073Z,6.40
2019-03-04T15:50:32.612Z,6.50
2019-03-04T15:53:01.486Z,6.50
2019-03-04T15:55:30.035Z,6.60
2019-03-04T15:57:58.644Z,6.70
2019-03-04T16:00:27.346Z,6.80
2019-03-04T16:02:55.895Z,6.90
2019-03-04T16:05:24.459Z,6.80
2019-03-04T16:07:53.054Z,6.90
2019-03-04T16:10:27.290Z,6.90
2019-03-04T16:12:55.958Z,6.90
2019-03-04T16:15:24.558Z,6.90
2019-03-04T16:17:54.818Z,6.70
2019-03-04T16:20:23.810Z,6.70
2019-03-04T16:22:54.359Z,6.70
2019-03-04T16:25:23.068Z,6.70
2019-03-04T16:27:53.151Z,6.80
2019-03-04T16:30:22.799Z,6.80
2019-03-04T16:32:51.459Z,6.80
2019-03-04T16:35:20.586Z,6.80
2019-03-04T16:37:49.259Z,6.80
2019-03-04T16:40:19.360Z,6.80
2019-03-04T16:42:47.899Z,6.90
2019-03-04T16:45:18.575Z,6.80
2019-03-04T16:47:47.173Z,6.90
2019-03-04T16:50:17.168Z,6.80
2019-03-04T16:52:48.746Z,7.00
2019-03-04T16:55:17.380Z,6.90
2019-03-04T16:57:45.981Z,7.10
2019-03-04T17:00:17.793Z,7.10
2019-03-04T17:02:46.316Z,7.00
2019-03-04T17:05:17.315Z,7.00
2019-03-04T17:07:46.990Z,7.00
2019-03-04T17:10:21.035Z,7.10
2019-03-04T17:12:49.634Z,7.10
2019-03-04T17:15:23.064Z,7.10
2019-03-04T17:17:51.730Z,7.00
2019-03-04T17:20:21.258Z,7.00
2019-03-04T17:22:49.932Z,7.00
2019-03-04T17:25:21.078Z,6.80
2019-03-04T17:27:50.054Z,6.80
2019-03-04T17:30:20.807Z,6.70
2019-03-04T17:32:49.375Z,6.70
2019-03-04T17:35:19.278Z,6.80
2019-03-04T17:37:47.903Z,6.80
2019-03-04T17:40:30.012Z,6.80
2019-03-04T17:42:58.648Z,6.80
2019-03-04T17:45:28.519Z,6.80
2019-03-04T17:47:57.457Z,6.70
2019-03-04T17:50:29.091Z,6.70
2019-03-04T17:52:57.717Z,6.70
2019-03-04T17:55:26.255Z,6.70
2019-03-04T17:57:54.813Z,6.80
2019-03-04T18:00:23.278Z,6.70
2019-03-04T18:02:52.902Z,6.70
2019-03-04T18:05:21.602Z,6.70
2019-03-04T18:07:50.213Z,6.70
2019-03-04T18:10:19.117Z,6.60
2019-03-04T18:12:48.285Z,6.60
2019-03-04T18:15:24.839Z,6.60
2019-03-04T18:17:53.393Z,6.50
2019-03-04T18:20:21.868Z,6.50
2019-03-04T18:22:50.421Z,6.50
2019-03-04T18:25:28.186Z,6.50
2019-03-04T18:28:03.338Z,6.50
2019-03-04T18:30:34.882Z,6.50
2019-03-04T18:33:30.907Z,6.50
2019-03-04T18:36:08.399Z,6.50
2019-03-04T18:38:48.474Z,6.50
2019-03-04T18:41:25.851Z,6.50
2019-03-04T18:44:06.110Z,6.50
2019-03-04T18:46:37.727Z,6.50
2019-03-04T18:49:06.614Z,6.50
2019-03-04T18:51:35.887Z,6.50
2019-03-04T18:54:06.489Z,6.50
2019-03-04T18:56:35.026Z,6.50
2019-03-04T18:59:03.866Z,6.50
2019-03-04T19:01:32.559Z,6.60
2019-03-04T19:04:01.206Z,6.50
2019-03-04T19:06:31.557Z,6.50
2019-03-04T19:09:02.131Z,6.50
2019-03-04T19:11:30.799Z,6.50
2019-03-04T19:13:59.696Z,6.50
2019-03-04T19:16:30.155Z,6.50
2019-03-04T19:19:04.206Z,6.50
2019-03-04T19:21:32.843Z,6.50
2019-03-04T19:24:01.382Z,6.40
2019-03-04T19:26:30.080Z,6.50
2019-03-04T19:28:58.613Z,6.50
2019-03-04T19:31:27.499Z,6.40
2019-03-04T19:33:56.027Z,6.40
2019-03-04T19:36:24.591Z,6.40
2019-03-04T19:38:53.198Z,6.30
2019-03-04T19:41:21.757Z,6.40
2019-03-04T19:43:50.290Z,6.40
2019-03-04T19:46:18.942Z,6.40
2019-03-04T19:48:48.268Z,6.30
2019-03-04T19:51:16.793Z,6.30
2019-03-04T19:53:45.378Z,6.40
2019-03-04T19:56:13.977Z,6.40
2019-03-04T19:58:42.507Z,6.40
2019-03-04T20:01:11.595Z,6.30
2019-03-04T20:03:40.633Z,6.30
2019-03-04T20:06:09.238Z,6.30
2019-03-04T20:08:37.819Z,6.30
2019-03-04T20:11:06.547Z,6.30
2019-03-04T20:13:35.159Z,6.30
2019-03-04T20:16:04.426Z,6.20
2019-03-04T20:18:33.386Z,6.20
2019-03-04T20:21:01.996Z,6.20
2019-03-04T20:23:30.573Z,6.20
2019-03-04T20:26:02.294Z,6.20
2019-03-04T20:28:30.970Z,6.20
2019-03-04T20:30:59.552Z,6.20
2019-03-04T20:33:28.078Z,6.20
2019-03-04T20:35:56.578Z,6.00
2019-03-04T20:38:30.864Z,6.20
2019-03-04T20:40:59.500Z,6.20
2019-03-04T20:43:28.054Z,6.10
2019-03-04T20:45:56.595Z,6.10
2019-03-04T20:48:25.218Z,6.10
2019-03-04T20:50:53.681Z,6.00
2019-03-04T20:53:22.247Z,5.90
2019-03-04T20:55:50.859Z,6.00
2019-03-04T20:58:19.495Z,6.10
2019-03-04T21:00:48.266Z,6.00
2019-03-04T21:03:16.822Z,6.00
2019-03-04T21:05:45.278Z,5.90
2019-03-04T21:08:13.845Z,5.90
2019-03-04T21:10:42.440Z,5.90
2019-03-04T21:13:18.691Z,5.90
2019-03-04T21:15:47.298Z,5.90
2019-03-04T21:18:15.862Z,5.90
2019-03-04T21:20:44.530Z,6.00
2019-03-04T21:23:13.268Z,6.00
2019-03-04T21:25:44.937Z,6.00
2019-03-04T21:28:38.914Z,6.00
2019-03-04T21:31:30.142Z,6.00
2019-03-04T21:34:01.751Z,5.90
2019-03-04T21:36:48.649Z,5.90
2019-03-04T21:39:27.983Z,5.90
2019-03-04T21:42:02.191Z,5.90
2019-03-04T21:44:36.387Z,5.90
2019-03-04T21:47:16.845Z,5.90
2019-03-04T21:49:48.051Z,5.90
2019-03-04T21:52:28.712Z,6.00
2019-03-04T21:54:57.337Z,6.00
2019-03-04T21:57:31.787Z,6.10
2019-03-04T22:00:00.512Z,6.10
2019-03-04T22:02:44.168Z,6.10
2019-03-04T22:05:17.908Z,6.20
2019-03-04T22:07:47.583Z,6.30
2019-03-04T22:10:16.398Z,6.30
2019-03-04T22:12:46.004Z,6.30
2019-03-04T22:15:16.706Z,6.40
2019-03-04T22:17:45.304Z,6.40
2019-03-04T22:20:16.773Z,6.40
2019-03-04T22:22:45.322Z,6.40
2019-03-04T22:25:14.850Z,6.40
2019-03-04T22:27:43.627Z,6.40
2019-03-04T22:30:14.989Z,6.40
2019-03-04T22:32:43.794Z,6.40
2019-03-04T22:35:17.060Z,6.30
2019-03-04T22:37:45.172Z,6.30
2019-03-04T22:40:27.666Z,6.40
2019-03-04T22:42:56.398Z,6.40
2019-03-04T22:45:25.039Z,6.40
2019-03-04T22:47:53.565Z,6.40
2019-03-04T22:50:22.892Z,6.40
2019-03-04T22:52:51.560Z,6.40
2019-03-04T22:55:23.112Z,6.40
2019-03-04T22:57:51.748Z,6.40
2019-03-04T23:00:43.013Z,6.40
2019-03-04T23:03:11.676Z,6.40
2019-03-04T23:05:40.239Z,6.40
2019-03-04T23:08:08.778Z,6.40
2019-03-04T23:10:40.146Z,6.40
2019-03-04T23:13:17.503Z,6.40
2019-03-04T23:15:48.775Z,6.30
2019-03-04T23:18:17.333Z,6.30
2019-03-04T23:20:45.871Z,6.30
2019-03-04T23:23:14.430Z,6.30
2019-03-04T23:25:43.041Z,6.40
2019-03-04T23:28:11.602Z,6.30
2019-03-04T23:30:40.130Z,6.30
2019-03-04T23:33:08.697Z,6.40
2019-03-04T23:35:37.223Z,6.40
2019-03-04T23:38:06.141Z,6.40
2019-03-04T23:40:34.673Z,6.40
2019-03-04T23:43:03.375Z,6.40
2019-03-04T23:45:31.995Z,6.40
2019-03-04T23:48:00.555Z,6.40
2019-03-04T23:50:29.104Z,6.40
2019-03-04T23:52:58.032Z,6.40
2019-03-04T23:55:26.755Z,6.40
2019-03-04T23:57:55.243Z,6.30
